Time;durP1;ratioP1;P1;durP2;ratioP2;P2;SDS_P1;SDS_P2;PMS_P1;PMS_P2;Temp;Humidity;BMP_temperature;BMP_pressure;BME280_temperature;BME280_humidity;BME280_pressure;Samples;Min_cycle;Max_cycle;Signal;HPM_P1;HPM_P2
2021/04/08 00:01:58;;;;;;;9.40;3.35;;;3.10;74.10;;;;;;4974218;28;20380;-75
2021/04/08 00:04:24;;;;;;;10.02;4.30;;;3.10;74.00;;;;;;4974503;28;20046;-75
2021/04/08 00:06:50;;;;;;;4.97;2.95;;;3.00;73.70;;;;;;4973412;28;20719;-75
2021/04/08 00:09:16;;;;;;;13.38;3.70;;;3.00;73.70;;;;;;4974201;28;20043;-75
2021/04/08 00:11:43;;;;;;;7.75;2.80;;;3.00;73.80;;;;;;4975853;28;20042;-76
2021/04/08 00:14:09;;;;;;;7.28;2.47;;;3.00;73.00;;;;;;4975409;28;20416;-75
2021/04/08 00:16:36;;;;;;;9.02;3.20;;;3.10;73.30;;;;;;4973210;28;20384;-75
2021/04/08 00:19:05;;;;;;;7.40;3.03;;;3.00;73.10;;;;;;4973815;28;20039;-76
2021/04/08 00:21:31;;;;;;;6.70;2.78;;;3.00;73.20;;;;;;4974101;28;20051;-75
2021/04/08 00:23:58;;;;;;;5.72;2.60;;;3.00;73.80;;;;;;4974475;28;20045;-76
2021/04/08 00:26:24;;;;;;;7.13;2.75;;;3.00;73.10;;;;;;4988834;28;20031;-75
2021/04/08 00:28:51;;;;;;;11.15;2.70;;;3.00;73.20;;;;;;4979791;28;20119;-75
2021/04/08 00:31:17;;;;;;;5.07;2.88;;;3.00;72.30;;;;;;4989518;28;20035;-75
2021/04/08 00:33:43;;;;;;;7.45;3.15;;;3.00;72.20;;;;;;4986447;28;20045;-75
2021/04/08 00:36:09;;;;;;;6.22;2.67;;;3.00;72.20;;;;;;4979621;28;20042;-75
2021/04/08 00:38:36;;;;;;;10.15;2.85;;;3.00;71.70;;;;;;4978113;28;20464;-75
2021/04/08 00:41:02;;;;;;;7.15;3.17;;;3.00;70.60;;;;;;4985188;28;20027;-75
2021/04/08 00:43:29;;;;;;;3.88;3.03;;;3.00;71.50;;;;;;4986228;28;20037;-75
2021/04/08 00:45:56;;;;;;;5.88;2.78;;;3.00;70.90;;;;;;4958943;28;20035;-75
2021/04/08 00:48:22;;;;;;;6.35;2.78;;;3.00;70.80;;;;;;4985619;28;20030;-75
2021/04/08 00:50:50;;;;;;;6.53;2.58;;;3.00;70.10;;;;;;4973336;28;20053;-74
2021/04/08 00:53:20;;;;;;;5.78;2.53;;;3.00;70.20;;;;;;4958586;28;20042;-74
2021/04/08 00:55:51;;;;;;;7.10;2.95;;;3.00;69.40;;;;;;4954651;28;20042;-74
2021/04/08 00:58:18;;;;;;;7.30;2.30;;;3.00;69.20;;;;;;4973360;28;20475;-75
2021/04/08 01:00:46;;;;;;;5.78;2.80;;;3.00;69.40;;;;;;4973048;28;20038;-74
2021/04/08 01:03:13;;;;;;;4.22;2.38;;;3.00;69.20;;;;;;4975860;28;20034;-74
2021/04/08 01:05:40;;;;;;;7.03;3.00;;;3.00;68.90;;;;;;4976783;28;20031;-74
2021/04/08 01:08:07;;;;;;;5.43;2.67;;;3.00;69.90;;;;;;4973285;28;20030;-73
2021/04/08 01:10:33;;;;;;;5.55;2.30;;;3.00;69.00;;;;;;4981202;28;20046;-73
2021/04/08 01:13:03;;;;;;;7.78;2.70;;;3.00;69.00;;;;;;4978331;28;20054;-74
2021/04/08 01:15:30;;;;;;;6.45;2.92;;;2.90;69.10;;;;;;4973051;28;20039;-75
2021/04/08 01:18:05;;;;;;;7.65;2.83;;;2.90;69.70;;;;;;4954102;28;20054;-74
2021/04/08 01:20:45;;;;;;;9.18;2.63;;;2.90;68.90;;;;;;4972190;28;20050;-73
2021/04/08 01:23:48;;;;;;;6.32;2.50;;;2.90;68.90;;;;;;4972244;28;20034;-75
2021/04/08 01:26:19;;;;;;;7.10;2.78;;;2.90;68.90;;;;;;4958963;28;20400;-75
2021/04/08 01:29:06;;;;;;;4.35;2.50;;;2.80;68.60;;;;;;4974036;28;20035;-75
2021/04/08 01:31:32;;;;;;;4.65;2.80;;;2.80;68.80;;;;;;4970667;28;20039;-75
2021/04/08 01:34:07;;;;;;;7.43;3.05;;;2.80;68.70;;;;;;4976107;28;20047;-75
2021/04/08 01:36:35;;;;;;;8.73;2.92;;;2.70;69.30;;;;;;4978377;28;20038;-74
2021/04/08 01:39:06;;;;;;;5.40;2.58;;;2.60;69.00;;;;;;4977698;28;20050;-74
2021/04/08 01:41:38;;;;;;;6.78;2.25;;;2.50;70.00;;;;;;4976522;28;20047;-74
2021/04/08 01:44:06;;;;;;;5.07;2.58;;;2.40;70.20;;;;;;4976728;28;20023;-74
2021/04/08 01:46:35;;;;;;;6.68;2.72;;;2.30;69.80;;;;;;4990165;28;20042;-75
2021/04/08 01:49:02;;;;;;;6.43;2.58;;;2.30;70.00;;;;;;4984862;28;20384;-74
2021/04/08 01:51:30;;;;;;;6.13;2.58;;;2.30;70.10;;;;;;4958791;28;20042;-76
2021/04/08 01:53:59;;;;;;;10.00;2.90;;;2.20;71.00;;;;;;4976337;28;20037;-75
2021/04/08 01:56:31;;;;;;;7.88;3.05;;;2.10;71.00;;;;;;4960814;28;20043;-74
2021/04/08 01:58:58;;;;;;;7.38;3.00;;;2.10;70.40;;;;;;4984407;28;20038;-75
2021/04/08 02:01:26;;;;;;;7.38;2.72;;;2.10;70.30;;;;;;4990452;28;20172;-76
2021/04/08 02:03:53;;;;;;;4.82;2.53;;;2.10;71.00;;;;;;4975891;28;20035;-74
2021/04/08 02:06:23;;;;;;;8.60;3.70;;;1.90;71.20;;;;;;4976283;28;20038;-74
2021/04/08 02:08:50;;;;;;;9.95;2.78;;;1.90;70.90;;;;;;4977347;28;20495;-74
2021/04/08 02:11:17;;;;;;;4.72;2.95;;;1.90;71.20;;;;;;4987541;28;20038;-75
2021/04/08 02:13:46;;;;;;;9.05;3.30;;;2.00;71.40;;;;;;4976161;28;20038;-74
2021/04/08 02:16:14;;;;;;;7.15;3.47;;;2.00;71.50;;;;;;4976327;28;20026;-75
2021/04/08 02:18:42;;;;;;;6.47;4.25;;;2.00;71.80;;;;;;4958695;28;20038;-74
2021/04/08 02:21:09;;;;;;;5.38;3.55;;;1.90;72.20;;;;;;4975563;28;20031;-75
2021/04/08 02:23:39;;;;;;;8.43;4.10;;;2.00;72.60;;;;;;4975814;28;20041;-75
2021/04/08 02:26:08;;;;;;;6.43;3.72;;;1.90;73.40;;;;;;4976036;28;20031;-74
2021/04/08 02:28:36;;;;;;;7.78;3.75;;;1.90;73.80;;;;;;4975207;28;20042;-74
2021/04/08 02:31:03;;;;;;;6.93;3.85;;;1.80;74.10;;;;;;4988486;28;20050;-74
2021/04/08 02:33:30;;;;;;;11.52;5.75;;;1.90;74.10;;;;;;4977333;28;20047;-74
2021/04/08 02:35:59;;;;;;;11.18;4.75;;;1.80;74.20;;;;;;4975348;28;20211;-74
2021/04/08 02:38:27;;;;;;;8.57;4.53;;;2.00;73.80;;;;;;4975966;28;20111;-74
2021/04/08 02:40:57;;;;;;;10.05;4.78;;;2.10;73.30;;;;;;4979234;28;20034;-74
2021/04/08 02:43:23;;;;;;;7.38;4.13;;;2.20;73.00;;;;;;4980298;28;20050;-74
2021/04/08 02:45:50;;;;;;;9.38;4.45;;;2.20;73.20;;;;;;4975298;28;20380;-74
2021/04/08 02:48:18;;;;;;;10.52;4.38;;;2.20;72.70;;;;;;4983746;28;20023;-73
2021/04/08 02:50:49;;;;;;;14.98;6.57;;;2.30;72.90;;;;;;4982826;28;20047;-74
2021/04/08 02:53:36;;;;;;;12.00;6.22;;;2.30;73.30;;;;;;4975381;28;20043;-74
2021/04/08 02:56:24;;;;;;;15.45;6.45;;;2.30;73.50;;;;;;4975550;28;20049;-74
2021/04/08 02:58:55;;;;;;;8.85;4.68;;;2.20;74.00;;;;;;4975089;28;20034;-74
2021/04/08 03:01:26;;;;;;;10.18;4.95;;;2.40;72.60;;;;;;4981723;28;20031;-74
2021/04/08 03:03:55;;;;;;;7.55;3.92;;;2.40;73.00;;;;;;4984944;28;20031;-73
2021/04/08 03:06:23;;;;;;;7.72;4.53;;;2.30;73.20;;;;;;4975189;28;20031;-74
2021/04/08 03:08:52;;;;;;;8.02;4.22;;;2.30;73.40;;;;;;4986891;28;20042;-74
2021/04/08 03:11:29;;;;;;;9.27;4.60;;;2.40;73.00;;;;;;4993277;28;20480;-73
2021/04/08 03:13:58;;;;;;;13.05;5.07;;;2.50;72.10;;;;;;4974579;28;20045;-73
2021/04/08 03:16:28;;;;;;;11.20;4.60;;;2.40;72.40;;;;;;4975050;28;20042;-74
2021/04/08 03:18:56;;;;;;;7.25;4.25;;;2.30;73.40;;;;;;4974114;28;20046;-74
2021/04/08 03:21:25;;;;;;;9.20;5.20;;;2.20;74.10;;;;;;4956361;28;20065;-73
2021/04/08 03:23:56;;;;;;;10.52;4.88;;;2.10;74.60;;;;;;4956768;28;20035;-75
2021/04/08 03:26:27;;;;;;;11.23;5.75;;;2.20;75.00;;;;;;4958085;28;20050;-75
2021/04/08 03:28:55;;;;;;;9.93;4.82;;;2.20;74.50;;;;;;4990464;28;20069;-74
2021/04/08 03:31:22;;;;;;;13.55;4.93;;;2.30;73.70;;;;;;4984039;28;20030;-74
2021/04/08 03:33:50;;;;;;;8.88;5.18;;;2.20;74.00;;;;;;4983490;28;20042;-73
2021/04/08 03:36:18;;;;;;;9.07;4.65;;;2.20;74.10;;;;;;4975056;28;20058;-74
2021/04/08 03:38:46;;;;;;;16.00;6.07;;;2.20;73.80;;;;;;4974312;28;20030;-75
2021/04/08 03:41:13;;;;;;;11.90;6.05;;;2.20;74.40;;;;;;4974792;28;20037;-74
2021/04/08 03:43:41;;;;;;;9.73;5.18;;;2.10;75.00;;;;;;4974288;28;20042;-74
2021/04/08 03:46:09;;;;;;;10.85;5.32;;;2.10;74.40;;;;;;4990788;28;20026;-74
2021/04/08 03:48:38;;;;;;;12.60;5.07;;;2.10;74.70;;;;;;4973896;28;20046;-74
2021/04/08 03:51:05;;;;;;;13.10;5.68;;;2.10;74.40;;;;;;4973195;28;20461;-74
2021/04/08 03:53:33;;;;;;;10.10;5.70;;;2.10;75.00;;;;;;4974969;28;20053;-74
2021/04/08 03:56:00;;;;;;;14.65;5.88;;;2.10;75.40;;;;;;4973905;28;20100;-75
2021/04/08 03:58:27;;;;;;;9.20;5.25;;;2.10;75.30;;;;;;4974247;28;20031;-74
2021/04/08 04:00:55;;;;;;;11.60;6.07;;;2.10;76.10;;;;;;4993480;28;20049;-75
2021/04/08 04:03:21;;;;;;;12.52;6.60;;;2.00;76.10;;;;;;4974473;28;20038;-75
2021/04/08 04:05:48;;;;;;;11.73;6.10;;;1.90;76.20;;;;;;4981585;28;20042;-75
2021/04/08 04:08:14;;;;;;;9.27;4.97;;;2.00;76.50;;;;;;4973269;28;20047;-75
2021/04/08 04:10:41;;;;;;;13.32;6.03;;;1.90;76.80;;;;;;4973595;28;20141;-74
2021/04/08 04:13:12;;;;;;;10.95;5.25;;;2.00;75.80;;;;;;4957279;28;20042;-75
2021/04/08 04:15:39;;;;;;;8.30;5.43;;;2.10;75.50;;;;;;4974844;28;20038;-74
2021/04/08 04:18:08;;;;;;;10.32;5.55;;;2.10;75.10;;;;;;4981752;28;20042;-75
2021/04/08 04:20:35;;;;;;;10.43;5.60;;;2.00;75.70;;;;;;4973063;28;20054;-75
2021/04/08 04:23:05;;;;;;;8.40;5.45;;;2.00;75.80;;;;;;4961524;28;20042;-73
2021/04/08 04:25:31;;;;;;;10.85;5.65;;;2.00;75.70;;;;;;4978310;28;20376;-73
2021/04/08 04:27:58;;;;;;;11.48;6.45;;;1.90;75.50;;;;;;4973791;28;20038;-75
2021/04/08 04:30:24;;;;;;;10.07;4.93;;;1.80;75.40;;;;;;4956663;28;20053;-75
2021/04/08 04:32:54;;;;;;;11.43;5.75;;;1.70;76.40;;;;;;4973348;28;20026;-75
2021/04/08 04:35:21;;;;;;;13.38;5.53;;;1.70;76.00;;;;;;4973773;28;20037;-74
2021/04/08 04:37:48;;;;;;;8.50;5.35;;;1.80;76.10;;;;;;4972456;28;20408;-74
2021/04/08 04:40:14;;;;;;;12.65;5.55;;;1.80;75.60;;;;;;4982014;28;20043;-74
2021/04/08 04:42:41;;;;;;;8.27;4.45;;;1.70;75.50;;;;;;4972995;28;20030;-73
2021/04/08 04:45:10;;;;;;;11.57;5.15;;;1.70;75.60;;;;;;4973442;28;20037;-75
2021/04/08 04:47:41;;;;;;;11.63;5.30;;;1.60;76.20;;;;;;4972826;28;20503;-74
2021/04/08 04:50:11;;;;;;;7.97;4.95;;;1.60;76.70;;;;;;4972936;28;20045;-74
2021/04/08 04:52:38;;;;;;;11.77;5.40;;;1.60;76.40;;;;;;4973330;28;20046;-74
2021/04/08 04:55:06;;;;;;;8.75;4.80;;;1.50;77.10;;;;;;4973031;28;20027;-73
2021/04/08 04:57:32;;;;;;;10.73;5.25;;;1.40;77.50;;;;;;4980852;28;20030;-74
2021/04/08 04:59:59;;;;;;;9.20;5.93;;;1.40;77.50;;;;;;4964558;28;20043;-74
2021/04/08 05:02:25;;;;;;;10.93;5.20;;;1.30;78.10;;;;;;4975052;28;20062;-75
2021/04/08 05:04:52;;;;;;;14.60;6.35;;;1.30;78.40;;;;;;4983295;28;20061;-75
2021/04/08 05:07:18;;;;;;;10.88;6.00;;;1.30;79.10;;;;;;4974126;28;20027;-75
2021/04/08 05:09:44;;;;;;;12.95;6.53;;;1.30;78.70;;;;;;4984409;28;20054;-74
2021/04/08 05:12:10;;;;;;;12.43;6.22;;;1.40;77.70;;;;;;4955978;28;20039;-75
2021/04/08 05:14:37;;;;;;;11.80;5.95;;;1.40;77.50;;;;;;5001708;28;20021;-75
2021/04/08 05:17:03;;;;;;;11.85;4.72;;;1.50;77.30;;;;;;4972740;28;20035;-74
2021/04/08 05:19:31;;;;;;;14.98;5.25;;;1.60;77.20;;;;;;4980056;28;20037;-75
2021/04/08 05:21:57;;;;;;;12.07;4.03;;;1.60;76.50;;;;;;4977794;28;20043;-75
2021/04/08 05:24:23;;;;;;;11.88;5.35;;;1.60;76.40;;;;;;4985408;28;20034;-75
2021/04/08 05:26:49;;;;;;;11.65;5.82;;;1.70;76.20;;;;;;4992658;28;20034;-74
2021/04/08 05:29:16;;;;;;;13.98;7.43;;;1.70;76.30;;;;;;4992875;28;20103;-73
2021/04/08 05:31:42;;;;;;;13.55;6.43;;;1.70;76.50;;;;;;4998340;28;20046;-73
2021/04/08 05:34:08;;;;;;;11.90;5.95;;;1.70;76.30;;;;;;4979564;28;20070;-73
2021/04/08 05:36:34;;;;;;;11.32;7.40;;;1.70;77.00;;;;;;4981781;28;20054;-73
2021/04/08 05:39:01;;;;;;;8.27;5.35;;;1.80;77.20;;;;;;4973156;28;20019;-74
2021/04/08 05:41:27;;;;;;;11.45;6.20;;;1.70;76.50;;;;;;4973035;28;20042;-74
2021/04/08 05:43:53;;;;;;;13.00;6.68;;;1.60;76.80;;;;;;4972642;28;20039;-74
2021/04/08 05:46:19;;;;;;;9.88;6.13;;;1.60;77.50;;;;;;4972493;28;20038;-74
2021/04/08 05:48:46;;;;;;;9.00;5.75;;;1.60;78.60;;;;;;4985454;28;20388;-74
2021/04/08 05:51:12;;;;;;;15.55;6.70;;;1.60;78.80;;;;;;4978254;28;20041;-74
2021/04/08 05:53:38;;;;;;;14.10;7.10;;;1.60;78.20;;;;;;4976224;28;20035;-75
2021/04/08 05:56:05;;;;;;;13.52;7.07;;;1.60;79.30;;;;;;4969570;28;20476;-74
2021/04/08 05:58:31;;;;;;;11.55;6.95;;;1.60;79.70;;;;;;4972819;28;20031;-73
2021/04/08 06:00:57;;;;;;;12.80;6.85;;;1.60;79.30;;;;;;4991413;28;20396;-73
2021/04/08 06:03:24;;;;;;;15.25;7.28;;;1.80;79.90;;;;;;4980399;28;20042;-74
2021/04/08 06:05:50;;;;;;;19.10;9.38;;;1.90;79.80;;;;;;4974301;28;20031;-74
2021/04/08 06:08:17;;;;;;;19.33;10.55;;;2.00;80.10;;;;;;4955378;28;20042;-75
2021/04/08 06:10:43;;;;;;;13.43;7.47;;;2.10;78.90;;;;;;4955633;28;20059;-74
2021/04/08 06:13:09;;;;;;;20.10;11.38;;;2.30;78.40;;;;;;4972926;28;20461;-75
2021/04/08 06:15:36;;;;;;;26.63;14.48;;;2.40;79.20;;;;;;4975499;28;20038;-75
2021/04/08 06:18:02;;;;;;;24.23;13.75;;;2.70;78.10;;;;;;4976268;28;20031;-75
2021/04/08 06:20:28;;;;;;;23.70;13.07;;;3.20;76.40;;;;;;4965930;28;20050;-75
2021/04/08 06:22:57;;;;;;;18.05;12.35;;;3.40;76.10;;;;;;4978446;28;20050;-74
2021/04/08 06:25:24;;;;;;;11.63;7.60;;;3.50;75.10;;;;;;4975199;28;20061;-76
2021/04/08 06:27:51;;;;;;;11.80;6.80;;;4.50;72.60;;;;;;4975374;28;20468;-74
2021/04/08 06:30:18;;;;;;;12.48;6.90;;;5.10;69.90;;;;;;4983033;28;20026;-74
2021/04/08 06:32:45;;;;;;;13.18;7.15;;;5.50;68.00;;;;;;4979092;28;20491;-74
2021/04/08 06:35:12;;;;;;;9.48;6.25;;;6.30;66.50;;;;;;4975797;28;20476;-74
2021/04/08 06:37:38;;;;;;;11.93;5.97;;;6.60;65.20;;;;;;4975884;28;20035;-73
2021/04/08 06:40:06;;;;;;;12.55;6.57;;;7.40;61.90;;;;;;4958592;28;20038;-74
2021/04/08 06:42:35;;;;;;;21.80;12.30;;;7.10;60.40;;;;;;4975598;28;20042;-74
2021/04/08 06:45:05;;;;;;;13.25;7.78;;;8.60;57.20;;;;;;4975249;28;20444;-73
2021/04/08 06:47:54;;;;;;;26.55;13.85;;;9.40;55.50;;;;;;4975719;28;20031;-74
2021/04/08 06:50:25;;;;;;;13.75;5.43;;;10.50;53.70;;;;;;4975369;28;20038;-75
2021/04/08 06:52:52;;;;;;;9.55;5.25;;;9.80;50.40;;;;;;4975794;28;20039;-74
2021/04/08 06:55:20;;;;;;;10.45;4.82;;;7.90;55.60;;;;;;4973933;28;20043;-75
2021/04/08 06:57:50;;;;;;;7.40;4.20;;;7.40;55.00;;;;;;4976073;28;20050;-73
2021/04/08 07:00:17;;;;;;;5.38;3.47;;;7.30;56.80;;;;;;4985033;28;20045;-73
2021/04/08 07:02:45;;;;;;;7.57;4.78;;;7.40;54.80;;;;;;4975248;28;20049;-73
2021/04/08 07:05:11;;;;;;;8.30;4.45;;;7.50;56.00;;;;;;4983580;28;20035;-74
2021/04/08 07:07:38;;;;;;;7.43;3.53;;;8.00;54.50;;;;;;4974974;28;20050;-75
2021/04/08 07:10:05;;;;;;;10.82;4.93;;;7.20;55.90;;;;;;4973660;28;20420;-74
2021/04/08 07:12:32;;;;;;;8.43;4.82;;;6.50;56.00;;;;;;4975243;28;20042;-74
2021/04/08 07:14:58;;;;;;;9.00;4.53;;;5.70;58.50;;;;;;4974696;28;20035;-73
2021/04/08 07:17:25;;;;;;;9.55;5.15;;;4.90;60.10;;;;;;4965749;28;20045;-72
2021/04/08 07:19:51;;;;;;;8.20;5.22;;;4.90;60.90;;;;;;4974680;28;20031;-74
2021/04/08 07:22:18;;;;;;;9.85;4.40;;;4.70;61.50;;;;;;4983848;28;20042;-74
2021/04/08 07:24:48;;;;;;;8.60;4.57;;;4.70;61.90;;;;;;4981301;28;20057;-77
2021/04/08 07:27:18;;;;;;;10.00;4.75;;;4.70;63.30;;;;;;4984585;28;20039;-74
2021/04/08 07:30:11;;;;;;;10.88;5.10;;;4.70;62.60;;;;;;4986402;28;20042;-74
2021/04/08 07:32:40;;;;;;;9.13;4.55;;;4.70;63.00;;;;;;4973438;28;20046;-74
2021/04/08 07:35:14;;;;;;;9.95;4.18;;;4.50;63.00;;;;;;4980307;28;20030;-74
2021/04/08 07:37:42;;;;;;;8.70;4.22;;;4.30;63.40;;;;;;4960409;28;20043;-75
2021/04/08 07:40:20;;;;;;;7.68;4.40;;;4.20;63.90;;;;;;4974819;28;20042;-75
2021/04/08 07:42:47;;;;;;;8.23;4.90;;;4.50;63.30;;;;;;4964688;28;20391;-74
2021/04/08 07:45:33;;;;;;;10.75;4.40;;;4.50;63.70;;;;;;4961359;28;20495;-75
2021/04/08 07:48:02;;;;;;;9.55;4.63;;;4.50;63.70;;;;;;4974239;28;20042;-75
2021/04/08 07:50:30;;;;;;;10.20;5.80;;;4.50;63.90;;;;;;4956755;28;20062;-75
2021/04/08 07:52:57;;;;;;;9.38;4.60;;;4.70;63.30;;;;;;4974026;28;20403;-74
2021/04/08 07:55:30;;;;;;;7.15;5.25;;;4.90;62.70;;;;;;4975135;28;20031;-75
2021/04/08 07:58:06;;;;;;;9.38;6.20;;;5.00;62.00;;;;;;4975023;28;20039;-75
2021/04/08 08:00:44;;;;;;;11.18;5.38;;;5.20;62.40;;;;;;4983076;28;20042;-75
2021/04/08 08:03:25;;;;;;;13.13;6.45;;;5.60;60.70;;;;;;4975973;28;20061;-75
2021/04/08 08:06:00;;;;;;;11.93;6.45;;;5.50;62.00;;;;;;4973853;28;20035;-75
2021/04/08 08:08:41;;;;;;;10.15;5.63;;;5.50;62.40;;;;;;4979092;28;20041;-74
2021/04/08 08:11:10;;;;;;;12.05;5.95;;;5.50;60.80;;;;;;4973952;28;20031;-74
2021/04/08 08:13:41;;;;;;;12.43;6.15;;;5.20;62.30;;;;;;4985501;28;20042;-74
2021/04/08 08:16:16;;;;;;;;;;;5.10;62.00;;;;;;4983283;28;20056;-75
2021/04/08 08:18:44;;;;;;;10.00;5.97;;;5.10;62.20;;;;;;4979712;28;19917;-74
2021/04/08 08:21:16;;;;;;;10.05;5.72;;;5.00;62.60;;;;;;4977643;28;20054;-77
2021/04/08 08:23:44;;;;;;;8.55;6.05;;;5.30;62.30;;;;;;4972929;28;20126;-74
2021/04/08 08:26:39;;;;;;;9.27;5.28;;;5.50;61.50;;;;;;4974643;28;20117;-75
2021/04/08 08:29:16;;;;;;;8.05;4.22;;;5.60;62.20;;;;;;4990301;28;20045;-77
2021/04/08 08:31:56;;;;;;;8.48;4.60;;;5.60;59.80;;;;;;4977930;28;20380;-75
2021/04/08 08:34:34;;;;;;;11.50;4.75;;;5.60;60.00;;;;;;4982224;28;20047;-75
2021/04/08 08:37:13;;;;;;;7.15;5.00;;;5.70;59.70;;;;;;4972820;28;20380;-71
2021/04/08 08:39:42;;;;;;;11.75;5.07;;;5.50;59.80;;;;;;4974166;28;20046;-75
2021/04/08 08:42:16;;;;;;;10.93;5.13;;;5.40;60.30;;;;;;4973174;28;20054;-75
2021/04/08 08:44:43;;;;;;;12.90;5.05;;;5.40;60.00;;;;;;4972650;28;20397;-74
2021/04/08 08:47:21;;;;;;;9.55;4.40;;;5.70;59.30;;;;;;4973855;28;20388;-75
2021/04/08 08:50:19;;;;;;;8.07;4.55;;;5.90;59.00;;;;;;4973855;28;20034;-76
2021/04/08 08:52:51;;;;;;;7.63;4.70;;;6.10;58.70;;;;;;4970066;28;20070;-73
2021/04/08 08:55:19;;;;;;;11.43;4.95;;;6.20;58.60;;;;;;4988549;28;20026;-75
2021/04/08 08:57:49;;;;;;;7.25;4.00;;;5.80;59.50;;;;;;4986288;28;20034;-74
2021/04/08 09:00:17;;;;;;;8.98;4.13;;;5.90;58.80;;;;;;4976688;28;20047;-75
2021/04/08 09:02:45;;;;;;;7.45;3.85;;;6.00;58.30;;;;;;4978986;28;20026;-73
2021/04/08 09:05:15;;;;;;;7.97;5.13;;;5.80;58.50;;;;;;4973597;28;20046;-72
2021/04/08 09:07:44;;;;;;;8.70;4.90;;;5.70;59.30;;;;;;4979511;28;20034;-72
2021/04/08 09:10:13;;;;;;;11.07;5.10;;;5.60;60.30;;;;;;4981288;28;20034;-73
2021/04/08 09:12:40;;;;;;;10.90;4.72;;;6.00;59.80;;;;;;4984920;28;20035;-73
2021/04/08 09:15:07;;;;;;;11.07;4.45;;;6.30;59.70;;;;;;4984398;28;20030;-73
2021/04/08 09:17:48;;;;;;;18.83;7.55;;;6.50;59.30;;;;;;4977999;28;20041;-76
2021/04/08 09:20:17;;;;;;;11.43;5.30;;;6.70;59.10;;;;;;4972758;28;20038;-76
2021/04/08 09:22:57;;;;;;;14.75;6.80;;;6.80;58.00;;;;;;4985809;28;20042;-75
2021/04/08 09:25:33;;;;;;;10.80;5.15;;;6.80;58.10;;;;;;4973389;28;20031;-76
2021/04/08 09:28:12;;;;;;;10.48;4.93;;;6.50;58.40;;;;;;4972840;28;20038;-76
2021/04/08 09:33:42;;;;;;;8.95;5.38;;;6.50;57.90;;;;;;4975703;28;20045;-77
2021/04/08 09:36:20;;;;;;;10.93;5.43;;;6.40;58.40;;;;;;4992241;28;20039;-77
2021/04/08 09:38:56;;;;;;;10.23;5.95;;;6.20;58.50;;;;;;4984803;28;20038;-76
2021/04/08 09:41:52;;;;;;;11.07;5.68;;;6.20;58.20;;;;;;4977441;28;20554;-76
2021/04/08 09:44:20;;;;;;;19.45;11.90;;;6.10;59.40;;;;;;4977410;28;20468;-76
2021/04/08 09:46:53;;;;;;;12.02;6.72;;;6.00;59.50;;;;;;4982584;28;20043;-76
2021/04/08 09:49:41;;;;;;;14.80;7.65;;;6.10;59.20;;;;;;4965191;28;20447;-76
2021/04/08 09:52:09;;;;;;;14.52;5.80;;;6.60;58.50;;;;;;4982489;28;20034;-74
2021/04/08 09:54:40;;;;;;;12.48;5.95;;;6.50;58.40;;;;;;4966296;28;20057;-74
2021/04/08 09:57:07;;;;;;;;;;;6.40;58.90;;;;;;4983219;28;20488;-75
2021/04/08 09:59:54;;;;;;;13.90;7.63;;;6.20;58.70;;;;;;4981819;28;19918;-75
2021/04/08 10:02:21;;;;;;;10.73;5.95;;;6.50;59.00;;;;;;4981446;28;20388;-75
2021/04/08 10:05:11;;;;;;;12.95;7.18;;;6.70;58.50;;;;;;4987746;28;20051;-74
2021/04/08 10:07:52;;;;;;;9.57;5.35;;;6.70;57.60;;;;;;4981629;28;20041;-74
2021/04/08 10:10:21;;;;;;;15.18;9.10;;;6.50;57.70;;;;;;4979181;28;20376;-74
2021/04/08 10:12:47;;;;;;;12.63;6.10;;;6.60;58.40;;;;;;4973677;28;20050;-74
2021/04/08 10:15:18;;;;;;;8.07;5.03;;;6.50;57.90;;;;;;4978736;28;20478;-74
2021/04/08 10:17:44;;;;;;;14.75;6.30;;;6.30;58.30;;;;;;4985707;28;20034;-73
2021/04/08 10:20:11;;;;;;;11.00;4.88;;;6.30;59.20;;;;;;4976657;28;20038;-74
2021/04/08 10:22:43;;;;;;;27.58;14.10;;;6.20;58.50;;;;;;4952788;28;20049;-75
2021/04/08 10:25:11;;;;;;;22.38;10.57;;;6.10;58.90;;;;;;4983700;28;20463;-74
2021/04/08 10:27:38;;;;;;;14.23;6.18;;;6.10;59.50;;;;;;4989699;28;20468;-75
2021/04/08 10:30:16;;;;;;;13.77;6.63;;;6.10;59.70;;;;;;4985698;28;20283;-74
2021/04/08 10:32:43;;;;;;;9.77;4.40;;;6.10;58.80;;;;;;4991796;28;20060;-75
2021/04/08 10:35:21;;;;;;;9.70;5.35;;;6.00;58.40;;;;;;4993849;28;20049;-74
2021/04/08 10:38:06;;;;;;;31.10;18.40;;;6.10;58.30;;;;;;5003844;28;20367;-74
2021/04/08 10:40:34;;;;;;;10.25;5.68;;;6.00;57.90;;;;;;4985254;28;20413;-73
2021/04/08 10:43:27;;;;;;;7.22;4.43;;;6.10;58.00;;;;;;4989263;28;20383;-74
2021/04/08 10:45:58;;;;;;;13.23;6.72;;;6.10;58.70;;;;;;4974115;28;20063;-75
2021/04/08 10:48:26;;;;;;;14.73;6.65;;;6.30;57.90;;;;;;4975984;28;20045;-74
2021/04/08 10:50:54;;;;;;;15.13;10.98;;;6.30;58.30;;;;;;4984859;28;20039;-74
2021/04/08 10:53:28;;;;;;;14.32;6.55;;;6.10;58.50;;;;;;4993984;28;20030;-76
2021/04/08 10:55:55;;;;;;;10.73;6.40;;;6.50;58.70;;;;;;4975332;28;20054;-74
2021/04/08 10:58:27;;;;;;;10.93;6.10;;;6.70;58.00;;;;;;4979419;28;20030;-74
2021/04/08 11:00:57;;;;;;;9.77;5.57;;;6.80;57.30;;;;;;4985584;28;20373;-75
2021/04/08 11:03:24;;;;;;;9.80;4.75;;;6.50;57.20;;;;;;4985291;28;20047;-76
2021/04/08 11:05:51;;;;;;;7.15;3.67;;;6.50;57.90;;;;;;4978074;28;20031;-73
2021/04/08 11:08:18;;;;;;;8.30;4.30;;;6.50;57.50;;;;;;4975131;28;20027;-74
2021/04/08 11:10:44;;;;;;;10.65;4.05;;;6.60;57.50;;;;;;4974527;28;20054;-72
2021/04/08 11:13:11;;;;;;;8.80;4.75;;;6.50;57.30;;;;;;4974864;28;20496;-73
2021/04/08 11:15:39;;;;;;;11.73;4.43;;;6.50;57.60;;;;;;4974357;28;20058;-72
2021/04/08 11:18:10;;;;;;;5.50;3.28;;;6.60;57.20;;;;;;4975201;28;20495;-73
2021/04/08 11:20:39;;;;;;;8.38;3.38;;;6.90;56.50;;;;;;4975457;28;20049;-73
2021/04/08 11:23:07;;;;;;;6.32;2.38;;;7.10;54.80;;;;;;4974994;28;20042;-73
2021/04/08 11:25:35;;;;;;;6.93;3.00;;;7.00;53.20;;;;;;4975225;28;20054;-72
2021/04/08 11:28:03;;;;;;;6.55;2.88;;;7.00;53.60;;;;;;4991371;28;20045;-72
2021/04/08 11:30:37;;;;;;;7.60;3.30;;;7.20;54.60;;;;;;4961737;28;20042;-73
2021/04/08 11:33:06;;;;;;;10.60;3.08;;;7.30;54.30;;;;;;4986374;28;20046;-72
2021/04/08 11:35:41;;;;;;;8.30;3.03;;;7.20;53.90;;;;;;4974590;28;20500;-72
2021/04/08 11:38:13;;;;;;;7.18;2.67;;;6.90;53.60;;;;;;4978630;28;20042;-72
2021/04/08 11:40:45;;;;;;;5.70;1.88;;;6.80;53.30;;;;;;4983117;28;20050;-72
2021/04/08 11:43:26;;;;;;;5.90;2.15;;;6.80;52.50;;;;;;4979216;28;20367;-72
2021/04/08 11:45:55;;;;;;;4.15;1.83;;;7.00;50.80;;;;;;4980150;28;20043;-72
2021/04/08 11:48:22;;;;;;;2.97;1.48;;;7.10;50.60;;;;;;4974905;28;20042;-72
2021/04/08 11:50:50;;;;;;;5.72;1.90;;;7.00;50.60;;;;;;4974409;28;20360;-73
2021/04/08 11:53:34;;;;;;;6.93;2.63;;;7.00;51.00;;;;;;4974938;28;20481;-74
2021/04/08 11:56:00;;;;;;;6.05;2.70;;;7.50;53.00;;;;;;4971003;28;20046;-78
2021/04/08 11:58:26;;;;;;;8.00;2.63;;;7.50;51.80;;;;;;4974836;28;20134;-78
2021/04/08 12:00:53;;;;;;;7.15;2.42;;;7.70;52.30;;;;;;4977000;28;20030;-77
2021/04/08 12:03:25;;;;;;;7.18;4.32;;;8.10;52.10;;;;;;4947874;28;20031;-77
2021/04/08 12:05:52;;;;;;;8.57;4.05;;;7.90;50.20;;;;;;4974249;28;20031;-76
2021/04/08 12:08:40;;;;;;;11.80;3.65;;;7.60;52.20;;;;;;4983307;28;20143;-73
2021/04/08 12:11:07;;;;;;;6.35;2.67;;;7.20;51.90;;;;;;4973994;28;20043;-74
2021/04/08 12:13:34;;;;;;;6.65;2.58;;;7.20;52.70;;;;;;4971867;28;20042;-74
2021/04/08 12:16:00;;;;;;;7.65;2.50;;;7.10;52.00;;;;;;4973557;28;20038;-75
2021/04/08 12:18:29;;;;;;;7.53;2.45;;;7.10;53.10;;;;;;4974484;28;20472;-73
2021/04/08 12:20:56;;;;;;;5.82;2.40;;;7.20;52.20;;;;;;4986120;28;20037;-73
2021/04/08 12:23:32;;;;;;;6.38;2.17;;;7.30;52.20;;;;;;4992172;28;20061;-73
2021/04/08 12:25:58;;;;;;;8.73;2.50;;;7.30;52.10;;;;;;4980589;28;20034;-75
2021/04/08 12:28:26;;;;;;;7.13;2.35;;;7.50;51.50;;;;;;4956488;28;20034;-75
2021/04/08 12:30:57;;;;;;;8.60;3.75;;;7.60;52.30;;;;;;4973481;28;20460;-73
2021/04/08 12:33:33;;;;;;;6.20;2.13;;;8.10;50.70;;;;;;4974103;28;20038;-73
2021/04/08 12:36:02;;;;;;;5.68;2.72;;;8.30;50.20;;;;;;4973437;28;20034;-73
2021/04/08 12:38:29;;;;;;;8.02;3.97;;;8.70;50.20;;;;;;4982525;28;20035;-73
2021/04/08 12:40:57;;;;;;;5.38;2.28;;;9.00;49.20;;;;;;4981528;28;20129;-73
2021/04/08 12:43:25;;;;;;;5.47;2.92;;;8.40;48.60;;;;;;4979070;28;20030;-73
2021/04/08 12:45:52;;;;;;;4.63;2.25;;;8.50;50.00;;;;;;4967764;28;20045;-74
2021/04/08 12:48:19;;;;;;;7.75;2.75;;;9.40;47.70;;;;;;4979860;28;20038;-74
2021/04/08 12:50:48;;;;;;;6.07;2.50;;;9.60;47.60;;;;;;4975030;28;20035;-74
2021/04/08 12:53:14;;;;;;;9.30;2.97;;;9.60;45.50;;;;;;4973616;28;20039;-73
2021/04/08 12:55:41;;;;;;;13.80;4.00;;;9.80;45.50;;;;;;4990145;28;20026;-74
2021/04/08 12:58:08;;;;;;;5.30;2.15;;;9.50;45.50;;;;;;4982345;28;20030;-74
2021/04/08 13:00:35;;;;;;;4.38;2.42;;;9.90;45.70;;;;;;4976620;28;20468;-74
2021/04/08 13:03:02;;;;;;;8.25;2.67;;;10.20;45.10;;;;;;4982895;28;20030;-74
2021/04/08 13:05:28;;;;;;;3.38;2.30;;;10.60;43.60;;;;;;4999736;28;20038;-73
2021/04/08 13:07:55;;;;;;;6.70;2.42;;;10.10;44.70;;;;;;4978845;28;20468;-74
2021/04/08 13:10:21;;;;;;;8.25;2.70;;;10.00;44.90;;;;;;4981716;28;20042;-73